Salem Township, Maine
Current Conditions -  °F | °C
As of 1:35 AM on Saturday 20 Dec 2014 (Local Time) from KWVL Reporting Station
Clear Clear  
Wind Chill: 12°   Ceiling: Unl
Heat Index: 21°   Visibility: 10mi
Dew Point: 12°   Wind: 8mph
Humidity: 68%   Direction: 10°N
Pressure: 30.14"   Gusts: NA
Location:  44.8564°N, 70.2117°W
Report Text: KWVL 200635Z 01007KT 10SM CLR M06/M11 A3014 RMK AO1
Loading
Personal Weather Stations






























Interactive Weather Map New forecast layout! Learn more

10-Day Weather Forecast

Advertisements
Track Severe Weather on mobile